Time;durP1;ratioP1;P1;durP2;ratioP2;P2;SDS_P1;SDS_P2;PMS_P1;PMS_P2;Temp;Humidity;BMP_temperature;BMP_pressure;BME280_temperature;BME280_humidity;BME280_pressure;Samples;Min_cycle;Max_cycle;Signal;HPM_P1;HPM_P2
2024/01/10 00:00:28;;;;;;;49.7;26.6;;;;;;;;;;;;;
2024/01/10 00:02:53;;;;;;;48;25.8;;;;;;;;;;;;;
2024/01/10 00:05:18;;;;;;;46.2;25.4;;;;;;;;;;;;;
2024/01/10 00:07:43;;;;;;;49.1;26.9;;;;;;;;;;;;;
2024/01/10 00:10:08;;;;;;;46.4;26.4;;;;;;;;;;;;;
2024/01/10 00:12:36;;;;;;;43.9;26;;;;;;;;;;;;;
2024/01/10 00:14:58;;;;;;;46.1;25.2;;;;;;;;;;;;;
2024/01/10 00:17:23;;;;;;;46.8;26.4;;;;;;;;;;;;;
2024/01/10 00:19:49;;;;;;;50.7;27.1;;;;;;;;;;;;;
2024/01/10 00:22:14;;;;;;;49.1;27.2;;;;;;;;;;;;;
2024/01/10 00:24:39;;;;;;;48;27.2;;;;;;;;;;;;;
2024/01/10 00:27:05;;;;;;;50.7;28.7;;;;;;;;;;;;;
2024/01/10 00:29:29;;;;;;;50;29.3;;;;;;;;;;;;;
2024/01/10 00:31:54;;;;;;;51.1;28.6;;;;;;;;;;;;;
2024/01/10 00:34:19;;;;;;;50.5;27.5;;;;;;;;;;;;;
2024/01/10 00:36:44;;;;;;;49;26.4;;;;;;;;;;;;;
2024/01/10 00:39:09;;;;;;;48.9;26.3;;;;;;;;;;;;;
2024/01/10 00:41:34;;;;;;;53.2;26.7;;;;;;;;;;;;;
2024/01/10 00:44:00;;;;;;;43.4;25.3;;;;;;;;;;;;;
2024/01/10 00:46:25;;;;;;;47.1;26.2;;;;;;;;;;;;;
2024/01/10 00:48:50;;;;;;;47.5;25.9;;;;;;;;;;;;;
2024/01/10 00:51:15;;;;;;;49.4;26.7;;;;;;;;;;;;;
2024/01/10 00:53:40;;;;;;;49.7;26.5;;;;;;;;;;;;;
2024/01/10 00:56:05;;;;;;;47.4;26.4;;;;;;;;;;;;;
2024/01/10 00:58:30;;;;;;;48.6;26.2;;;;;;;;;;;;;
2024/01/10 01:00:55;;;;;;;45.8;24.4;;;;;;;;;;;;;
2024/01/10 01:03:20;;;;;;;47.5;24.9;;;;;;;;;;;;;
2024/01/10 01:05:46;;;;;;;45.8;25.2;;;;;;;;;;;;;
2024/01/10 01:08:11;;;;;;;45;25.9;;;;;;;;;;;;;
2024/01/10 01:10:36;;;;;;;46.6;25.2;;;;;;;;;;;;;
2024/01/10 01:13:02;;;;;;;45.2;24.5;;;;;;;;;;;;;
2024/01/10 01:15:26;;;;;;;43.7;25.5;;;;;;;;;;;;;
2024/01/10 01:17:51;;;;;;;46;25.4;;;;;;;;;;;;;
2024/01/10 01:20:16;;;;;;;52.1;28.8;;;;;;;;;;;;;
2024/01/10 01:22:42;;;;;;;47.7;26.1;;;;;;;;;;;;;
2024/01/10 01:25:07;;;;;;;45.2;24.8;;;;;;;;;;;;;
2024/01/10 01:27:32;;;;;;;41.8;23.3;;;;;;;;;;;;;
2024/01/10 01:29:57;;;;;;;43.4;23.6;;;;;;;;;;;;;
2024/01/10 01:32:22;;;;;;;45.6;24.4;;;;;;;;;;;;;
2024/01/10 01:34:47;;;;;;;42.4;23.9;;;;;;;;;;;;;
2024/01/10 01:37:13;;;;;;;45.7;23.6;;;;;;;;;;;;;
2024/01/10 01:39:38;;;;;;;45;23.8;;;;;;;;;;;;;
2024/01/10 01:42:03;;;;;;;41.7;24;;;;;;;;;;;;;
2024/01/10 01:44:28;;;;;;;43;23.2;;;;;;;;;;;;;
2024/01/10 01:46:53;;;;;;;40.8;24;;;;;;;;;;;;;
2024/01/10 01:49:18;;;;;;;42.5;23.9;;;;;;;;;;;;;
2024/01/10 01:51:43;;;;;;;43.9;24.8;;;;;;;;;;;;;
2024/01/10 01:54:08;;;;;;;44.5;24.7;;;;;;;;;;;;;
2024/01/10 01:56:33;;;;;;;44.4;24.1;;;;;;;;;;;;;
2024/01/10 01:58:58;;;;;;;45.2;24.7;;;;;;;;;;;;;
2024/01/10 02:01:24;;;;;;;46.9;24.4;;;;;;;;;;;;;
2024/01/10 02:03:49;;;;;;;47.4;24.7;;;;;;;;;;;;;
2024/01/10 02:06:14;;;;;;;42.9;24.2;;;;;;;;;;;;;
2024/01/10 02:08:39;;;;;;;45.4;24.1;;;;;;;;;;;;;
2024/01/10 02:11:04;;;;;;;45.5;24.7;;;;;;;;;;;;;
2024/01/10 02:13:29;;;;;;;42.4;23.8;;;;;;;;;;;;;
2024/01/10 02:15:54;;;;;;;43.6;23.9;;;;;;;;;;;;;
2024/01/10 02:18:19;;;;;;;46.2;25;;;;;;;;;;;;;
2024/01/10 02:20:45;;;;;;;44.3;24.3;;;;;;;;;;;;;
2024/01/10 02:23:10;;;;;;;45.7;24.9;;;;;;;;;;;;;
2024/01/10 02:25:35;;;;;;;43.9;25.2;;;;;;;;;;;;;
2024/01/10 02:28:00;;;;;;;44.7;25.5;;;;;;;;;;;;;
2024/01/10 02:30:25;;;;;;;42.1;24;;;;;;;;;;;;;
2024/01/10 02:32:50;;;;;;;48.3;25;;;;;;;;;;;;;
2024/01/10 02:35:15;;;;;;;38.5;22.8;;;;;;;;;;;;;
2024/01/10 02:37:40;;;;;;;38.6;22.2;;;;;;;;;;;;;
2024/01/10 02:40:05;;;;;;;38.6;22.5;;;;;;;;;;;;;
2024/01/10 02:42:31;;;;;;;42.4;22.6;;;;;;;;;;;;;
2024/01/10 02:44:55;;;;;;;39.1;22;;;;;;;;;;;;;
2024/01/10 02:47:21;;;;;;;41.4;21.9;;;;;;;;;;;;;
2024/01/10 02:49:46;;;;;;;38.2;21.7;;;;;;;;;;;;;
2024/01/10 02:52:12;;;;;;;46;25.3;;;;;;;;;;;;;
2024/01/10 02:54:36;;;;;;;103.7;59.1;;;;;;;;;;;;;
2024/01/10 02:57:01;;;;;;;132.4;74.7;;;;;;;;;;;;;
2024/01/10 02:59:26;;;;;;;57.5;31.1;;;;;;;;;;;;;
2024/01/10 03:01:51;;;;;;;44.3;25.2;;;;;;;;;;;;;
2024/01/10 03:04:17;;;;;;;43.2;24.1;;;;;;;;;;;;;
2024/01/10 03:06:42;;;;;;;45.3;23.9;;;;;;;;;;;;;
2024/01/10 03:09:07;;;;;;;40.3;22.7;;;;;;;;;;;;;
2024/01/10 03:11:34;;;;;;;41.3;22;;;;;;;;;;;;;
2024/01/10 03:13:57;;;;;;;40.7;22.6;;;;;;;;;;;;;
2024/01/10 03:16:22;;;;;;;39.2;22.5;;;;;;;;;;;;;
2024/01/10 03:18:47;;;;;;;40;22.4;;;;;;;;;;;;;
2024/01/10 03:21:12;;;;;;;42.8;23;;;;;;;;;;;;;
2024/01/10 03:23:38;;;;;;;45.2;23.5;;;;;;;;;;;;;
2024/01/10 03:26:03;;;;;;;41.5;22.7;;;;;;;;;;;;;
2024/01/10 03:28:28;;;;;;;40.5;23;;;;;;;;;;;;;
2024/01/10 03:30:53;;;;;;;40.1;22.2;;;;;;;;;;;;;
2024/01/10 03:33:18;;;;;;;43.1;22.6;;;;;;;;;;;;;
2024/01/10 03:35:43;;;;;;;42.4;23.3;;;;;;;;;;;;;
2024/01/10 03:38:09;;;;;;;42.1;23.8;;;;;;;;;;;;;
2024/01/10 03:40:36;;;;;;;45.2;25.5;;;;;;;;;;;;;
2024/01/10 03:42:59;;;;;;;45;25.3;;;;;;;;;;;;;
2024/01/10 03:45:24;;;;;;;43.2;23.6;;;;;;;;;;;;;
2024/01/10 03:47:51;;;;;;;45.1;23.3;;;;;;;;;;;;;
2024/01/10 03:50:14;;;;;;;38.3;22.2;;;;;;;;;;;;;
2024/01/10 03:52:39;;;;;;;40.6;22.5;;;;;;;;;;;;;
2024/01/10 03:55:12;;;;;;;45.4;22.5;;;;;;;;;;;;;
2024/01/10 03:57:30;;;;;;;41.7;22.7;;;;;;;;;;;;;
2024/01/10 03:59:55;;;;;;;40.4;21.9;;;;;;;;;;;;;
2024/01/10 04:02:37;;;;;;;41.2;22.1;;;;;;;-5.52;83.91504;942.3854;;;;
2024/01/10 04:05:02;;;;;;;40.8;22.1;;;;;;;-5.51;83.82813;942.3539;;;;
2024/01/10 04:07:25;;;;;;;40.5;22.4;;;;;;;-5.4;84.25879;942.3212;;;;
2024/01/10 04:09:51;;;;;;;42;23.2;;;;;;;-5.27;83.9873;942.2671;;;;
2024/01/10 04:12:17;;;;;;;40.7;22.7;;;;;;;-5.37;84.07715;942.2103;;;;
2024/01/10 04:14:45;;;;;;;41.8;22.9;;;;;;;-5.28;84.13965;942.1866;;;;
2024/01/10 04:17:09;;;;;;;43.5;24.5;;;;;;;-5.24;84.14746;942.274;;;;
2024/01/10 04:19:33;;;;;;;42.9;23.2;;;;;;;-5.23;84.00586;942.312;;;;
2024/01/10 04:21:58;;;;;;;40.3;22.6;;;;;;;-5.2;84.04395;942.2903;;;;
2024/01/10 04:24:23;;;;;;;42.5;22.6;;;;;;;-5.12;83.9082;942.2936;;;;
2024/01/10 04:26:48;;;;;;;39.4;23.1;;;;;;;-5.07;83.81836;942.1519;;;;
2024/01/10 04:29:13;;;;;;;40.2;22.3;;;;;;;-4.94;83.38184;942.2102;;;;
2024/01/10 04:31:39;;;;;;;41.3;21.6;;;;;;;-4.91;83.34473;942.2414;;;;
2024/01/10 04:34:04;;;;;;;39;21.3;;;;;;;-4.97;83.35449;942.2043;;;;
2024/01/10 04:36:29;;;;;;;37.4;21.8;;;;;;;-5.05;83.43652;942.2673;;;;
2024/01/10 04:38:54;;;;;;;39.3;21.3;;;;;;;-5.07;83.41113;942.1442;;;;
2024/01/10 04:41:19;;;;;;;37.6;21.9;;;;;;;-5.05;83.57031;942.2413;;;;
2024/01/10 04:43:44;;;;;;;39.4;22.2;;;;;;;-5.08;83.9375;942.2667;;;;
2024/01/10 04:46:10;;;;;;;41.9;22.1;;;;;;;-5.12;83.60938;942.3016;;;;
2024/01/10 04:48:35;;;;;;;38.6;21.5;;;;;;;-5.18;82.88379;942.4169;;;;
2024/01/10 04:51:00;;;;;;;40.3;22.3;;;;;;;-5.19;82.70605;942.4826;;;;
2024/01/10 04:53:25;;;;;;;39.8;21.5;;;;;;;-5.17;82.42285;942.4286;;;;
2024/01/10 04:55:50;;;;;;;37.4;21.6;;;;;;;-5.28;82.87305;942.509;;;;
2024/01/10 04:58:15;;;;;;;39.6;22.3;;;;;;;-5.3;83.05664;942.5323;;;;
2024/01/10 05:00:40;;;;;;;39.6;21.6;;;;;;;-5.19;82.94727;942.5022;;;;
2024/01/10 05:03:06;;;;;;;42.1;23.9;;;;;;;-5.19;82.69238;942.4997;;;;
2024/01/10 05:05:30;;;;;;;46;23.9;;;;;;;-5.29;82.69727;942.5217;;;;
2024/01/10 05:07:55;;;;;;;42.2;22.9;;;;;;;-5.33;82.9082;942.5683;;;;
2024/01/10 05:10:21;;;;;;;43.2;23.7;;;;;;;;;;;;;
2024/01/10 05:12:46;;;;;;;42.2;22.1;;;;;;;;;;;;;
2024/01/10 05:15:11;;;;;;;41.2;21.8;;;;;;;;;;;;;
2024/01/10 05:17:36;;;;;;;39;21.6;;;;;;;;;;;;;
2024/01/10 05:20:01;;;;;;;43.2;22.3;;;;;;;;;;;;;
2024/01/10 05:22:28;;;;;;;37.9;21.4;;;;;;;;;;;;;
2024/01/10 05:24:53;;;;;;;41.1;21.9;;;;;;;;;;;;;
2024/01/10 05:27:16;;;;;;;43.9;22.4;;;;;;;;;;;;;
2024/01/10 05:29:41;;;;;;;41.9;22.3;;;;;;;;;;;;;
2024/01/10 05:32:06;;;;;;;40.2;21.9;;;;;;;;;;;;;
2024/01/10 05:34:32;;;;;;;39.1;21.6;;;;;;;;;;;;;
2024/01/10 05:36:57;;;;;;;42.7;23;;;;;;;;;;;;;
2024/01/10 05:39:22;;;;;;;41.4;22.5;;;;;;;;;;;;;
2024/01/10 05:41:47;;;;;;;43.5;23.6;;;;;;;;;;;;;
2024/01/10 05:44:12;;;;;;;41.6;23.5;;;;;;;;;;;;;
2024/01/10 05:46:37;;;;;;;46.2;23.2;;;;;;;;;;;;;
2024/01/10 05:49:04;;;;;;;45.1;23.6;;;;;;;;;;;;;
2024/01/10 05:51:28;;;;;;;48;26.4;;;;;;;;;;;;;
2024/01/10 05:53:53;;;;;;;47.1;25.9;;;;;;;;;;;;;
2024/01/10 05:56:18;;;;;;;46.6;24.2;;;;;;;;;;;;;
2024/01/10 05:58:43;;;;;;;46.3;24.1;;;;;;;;;;;;;
2024/01/10 06:01:09;;;;;;;43.4;23.8;;;;;;;;;;;;;
2024/01/10 06:03:33;;;;;;;40.9;23.5;;;;;;;;;;;;;
2024/01/10 06:05:58;;;;;;;43.1;23;;;;;;;;;;;;;
2024/01/10 06:08:25;;;;;;;49.4;26.6;;;;;;;;;;;;;
2024/01/10 06:10:48;;;;;;;45.1;23.9;;;;;;;;;;;;;
2024/01/10 06:13:13;;;;;;;39.2;21.5;;;;;;;;;;;;;
2024/01/10 06:15:39;;;;;;;40.3;22.2;;;;;;;;;;;;;
2024/01/10 06:18:04;;;;;;;38.6;22;;;;;;;;;;;;;
2024/01/10 06:20:31;;;;;;;33.9;19.6;;;;;;;;;;;;;
2024/01/10 06:22:54;;;;;;;35.3;20.1;;;;;;;;;;;;;
2024/01/10 06:25:19;;;;;;;51.9;30.1;;;;;;;;;;;;;
2024/01/10 06:27:44;;;;;;;54.3;29.9;;;;;;;;;;;;;
2024/01/10 06:30:09;;;;;;;38.9;22;;;;;;;;;;;;;
2024/01/10 06:32:35;;;;;;;38.3;21.7;;;;;;;;;;;;;
2024/01/10 06:35:00;;;;;;;50.9;26.9;;;;;;;;;;;;;
2024/01/10 06:37:24;;;;;;;39.2;21.1;;;;;;;;;;;;;
2024/01/10 06:39:50;;;;;;;36.1;19.9;;;;;;;;;;;;;
2024/01/10 06:42:15;;;;;;;34.5;19.6;;;;;;;;;;;;;
2024/01/10 06:44:40;;;;;;;34.3;20;;;;;;;;;;;;;
2024/01/10 06:47:06;;;;;;;35.5;20.1;;;;;;;;;;;;;
2024/01/10 06:49:30;;;;;;;34.4;19.4;;;;;;;;;;;;;
2024/01/10 06:51:56;;;;;;;146.4;67.2;;;;;;;;;;;;;
2024/01/10 06:54:22;;;;;;;61.8;33.3;;;;;;;;;;;;;
2024/01/10 06:56:52;;;;;;;83.9;43.1;;;;;;;;;;;;;
2024/01/10 06:59:21;;;;;;;49.4;26.4;;;;;;;;;;;;;
2024/01/10 07:01:42;;;;;;;44;23.4;;;;;;;;;;;;;
2024/01/10 07:04:07;;;;;;;44.3;22.1;;;;;;;;;;;;;
2024/01/10 07:06:34;;;;;;;39.9;20.8;;;;;;;;;;;;;
2024/01/10 07:08:58;;;;;;;30.9;17.7;;;;;;;;;;;;;
2024/01/10 07:11:22;;;;;;;31.2;17;;;;;;;;;;;;;
2024/01/10 07:13:47;;;;;;;26.7;15.9;;;;;;;;;;;;;
2024/01/10 07:16:14;;;;;;;28.2;16.8;;;;;;;;;;;;;
2024/01/10 07:18:38;;;;;;;28.1;15.7;;;;;;;;;;;;;
2024/01/10 07:21:03;;;;;;;26.5;15.8;;;;;;;;;;;;;
2024/01/10 07:23:28;;;;;;;27.3;17.7;;;;;;;;;;;;;
2024/01/10 07:25:53;;;;;;;29.8;16.2;;;;;;;;;;;;;
2024/01/10 07:28:18;;;;;;;25.6;14.7;;;;;;;;;;;;;
2024/01/10 07:30:44;;;;;;;34.2;17.3;;;;;;;;;;;;;
2024/01/10 07:33:08;;;;;;;29.5;16.9;;;;;;;;;;;;;
2024/01/10 07:35:33;;;;;;;30.6;17.1;;;;;;;;;;;;;
2024/01/10 07:37:59;;;;;;;27.3;15.7;;;;;;;;;;;;;
2024/01/10 07:40:24;;;;;;;30.4;16.8;;;;;;;;;;;;;
2024/01/10 07:42:49;;;;;;;32;19;;;;;;;;;;;;;
2024/01/10 07:45:14;;;;;;;32.7;18.8;;;;;;;;;;;;;
2024/01/10 07:47:39;;;;;;;29;17.4;;;;;;;;;;;;;
2024/01/10 07:50:04;;;;;;;29.6;16.8;;;;;;;;;;;;;
2024/01/10 07:52:29;;;;;;;30;16.6;;;;;;;;;;;;;
2024/01/10 07:54:54;;;;;;;27.3;16;;;;;;;;;;;;;
2024/01/10 07:57:19;;;;;;;27;15.1;;;;;;;;;;;;;
2024/01/10 07:59:44;;;;;;;22;12.6;;;;;;;;;;;;;
2024/01/10 08:02:10;;;;;;;24.2;15.1;;;;;;;;;;;;;
2024/01/10 08:04:35;;;;;;;26.5;14.9;;;;;;;;;;;;;
2024/01/10 08:07:00;;;;;;;27.5;17.2;;;;;;;;;;;;;
2024/01/10 08:09:25;;;;;;;26.6;15.7;;;;;;;;;;;;;
2024/01/10 08:11:50;;;;;;;22.3;13.9;;;;;;;;;;;;;
2024/01/10 08:14:16;;;;;;;22.8;13.7;;;;;;;;;;;;;
2024/01/10 08:16:40;;;;;;;18.6;12.4;;;;;;;;;;;;;
2024/01/10 08:19:06;;;;;;;22.6;12.7;;;;;;;;;;;;;
2024/01/10 08:21:31;;;;;;;23.8;13.9;;;;;;;;;;;;;
2024/01/10 08:23:56;;;;;;;22.2;13.1;;;;;;;;;;;;;
2024/01/10 08:26:21;;;;;;;22;13.4;;;;;;;;;;;;;
2024/01/10 08:28:46;;;;;;;25.7;15.1;;;;;;;;;;;;;
2024/01/10 08:31:12;;;;;;;25.4;14.6;;;;;;;;;;;;;
2024/01/10 08:33:36;;;;;;;22.5;13.4;;;;;;;;;;;;;
2024/01/10 08:36:02;;;;;;;20.4;12.4;;;;;;;;;;;;;
2024/01/10 08:38:27;;;;;;;19;11.5;;;;;;;;;;;;;
2024/01/10 08:40:52;;;;;;;19;12;;;;;;;;;;;;;
2024/01/10 08:43:17;;;;;;;18.6;12.2;;;;;;;;;;;;;
2024/01/10 08:45:42;;;;;;;25.8;16.2;;;;;;;;;;;;;
2024/01/10 08:48:07;;;;;;;31.2;18.1;;;;;;;;;;;;;
2024/01/10 08:50:33;;;;;;;30.7;18.2;;;;;;;;;;;;;
2024/01/10 08:52:57;;;;;;;26.5;15.3;;;;;;;;;;;;;
2024/01/10 08:55:23;;;;;;;23.6;14.8;;;;;;;;;;;;;
2024/01/10 08:57:47;;;;;;;20.7;13.5;;;;;;;;;;;;;
2024/01/10 09:00:14;;;;;;;20.7;12.3;;;;;;;;;;;;;
2024/01/10 09:02:37;;;;;;;17.7;12;;;;;;;;;;;;;
2024/01/10 09:05:03;;;;;;;18.3;12.2;;;;;;;;;;;;;
2024/01/10 09:07:28;;;;;;;21.8;13.5;;;;;;;;;;;;;
2024/01/10 09:09:53;;;;;;;18.5;12.2;;;;;;;;;;;;;
2024/01/10 09:12:18;;;;;;;20.9;13.1;;;;;;;;;;;;;
2024/01/10 09:14:43;;;;;;;23;13.3;;;;;;;;;;;;;
2024/01/10 09:17:08;;;;;;;23.4;14.3;;;;;;;;;;;;;
2024/01/10 09:19:33;;;;;;;18.5;11.3;;;;;;;;;;;;;
2024/01/10 09:21:59;;;;;;;18.7;11.9;;;;;;;;;;;;;
2024/01/10 09:24:25;;;;;;;18.9;11.5;;;;;;;;;;;;;
2024/01/10 09:26:49;;;;;;;19.4;12.4;;;;;;;;;;;;;
2024/01/10 09:29:14;;;;;;;20.1;12.6;;;;;;;;;;;;;
2024/01/10 09:31:39;;;;;;;20.9;12.1;;;;;;;;;;;;;
2024/01/10 09:34:05;;;;;;;18;11.6;;;;;;;;;;;;;
2024/01/10 09:36:29;;;;;;;15.9;9.9;;;;;;;;;;;;;
2024/01/10 09:38:55;;;;;;;17.4;10.4;;;;;;;;;;;;;
2024/01/10 09:41:20;;;;;;;21.7;12.4;;;;;;;;;;;;;
2024/01/10 09:43:45;;;;;;;31.3;16;;;;;;;;;;;;;
2024/01/10 09:46:11;;;;;;;31.1;15.7;;;;;;;;;;;;;
2024/01/10 09:48:35;;;;;;;33.7;17.2;;;;;;;;;;;;;
2024/01/10 09:51:00;;;;;;;40.8;21.4;;;;;;;;;;;;;
2024/01/10 09:53:26;;;;;;;38.4;21.5;;;;;;;;;;;;;
2024/01/10 09:55:50;;;;;;;30.4;16.4;;;;;;;;;;;;;
2024/01/10 09:58:15;;;;;;;25.2;15.1;;;;;;;;;;;;;
2024/01/10 10:00:40;;;;;;;21;13;;;;;;;;;;;;;
2024/01/10 10:03:06;;;;;;;17.5;11.2;;;;;;;;;;;;;
2024/01/10 10:05:31;;;;;;;18.4;11.2;;;;;;;;;;;;;
2024/01/10 10:07:57;;;;;;;17.8;10.9;;;;;;;;;;;;;
2024/01/10 10:10:21;;;;;;;17.5;10.8;;;;;;;;;;;;;
2024/01/10 10:12:46;;;;;;;19.5;11.9;;;;;;;;;;;;;
2024/01/10 10:15:11;;;;;;;17.4;11.5;;;;;;;;;;;;;
2024/01/10 10:17:37;;;;;;;17.6;10.9;;;;;;;;;;;;;
2024/01/10 10:20:01;;;;;;;16.4;10.5;;;;;;;;;;;;;
2024/01/10 10:22:26;;;;;;;15;9.4;;;;;;;;;;;;;
2024/01/10 10:24:53;;;;;;;14.7;9.6;;;;;;;;;;;;;
2024/01/10 10:27:16;;;;;;;13.6;8.9;;;;;;;;;;;;;
2024/01/10 10:29:42;;;;;;;13;8;;;;;;;;;;;;;
2024/01/10 10:32:08;;;;;;;13.3;8.3;;;;;;;;;;;;;
2024/01/10 10:34:32;;;;;;;11.6;7.8;;;;;;;;;;;;;
2024/01/10 10:36:57;;;;;;;11.6;7.7;;;;;;;;;;;;;
2024/01/10 10:39:22;;;;;;;12.6;8.5;;;;;;;;;;;;;
2024/01/10 10:41:47;;;;;;;28.2;15.6;;;;;;;;;;;;;
2024/01/10 10:44:12;;;;;;;21.2;12.7;;;;;;;;;;;;;
2024/01/10 10:46:48;;;;;;;14.8;10.1;;;;;;;;;;;;;
2024/01/10 10:49:12;;;;;;;14.7;10.2;;;;;;;;;;;;;
2024/01/10 10:51:37;;;;;;;14.3;9.7;;;;;;;;;;;;;
2024/01/10 10:54:05;;;;;;;14.1;9.8;;;;;;;;;;;;;
2024/01/10 10:56:28;;;;;;;15.7;10.2;;;;;;;;;;;;;
2024/01/10 10:58:53;;;;;;;14.1;10;;;;;;;;;;;;;
2024/01/10 11:01:18;;;;;;;14.9;10.7;;;;;;;;;;;;;
2024/01/10 11:03:47;;;;;;;15.5;10.1;;;;;;;;;;;;;
2024/01/10 11:06:09;;;;;;;13.2;9.5;;;;;;;;;;;;;
2024/01/10 11:08:34;;;;;;;15.3;9.7;;;;;;;;;;;;;
2024/01/10 11:10:59;;;;;;;13.8;9.2;;;;;;;;;;;;;
2024/01/10 11:13:24;;;;;;;13.1;8.5;;;;;;;;;;;;;
2024/01/10 11:15:49;;;;;;;11.4;8.4;;;;;;;;;;;;;
2024/01/10 11:18:14;;;;;;;12.2;7.9;;;;;;;;;;;;;
2024/01/10 11:20:39;;;;;;;11.8;7.6;;;;;;;;;;;;;
2024/01/10 11:23:05;;;;;;;10.3;7;;;;;;;;;;;;;
2024/01/10 11:25:30;;;;;;;11.1;7.8;;;;;;;;;;;;;
2024/01/10 11:27:55;;;;;;;12.4;8.6;;;;;;;;;;;;;
2024/01/10 11:30:20;;;;;;;20.1;13.2;;;;;;;;;;;;;
2024/01/10 11:32:45;;;;;;;72.1;39.1;;;;;;;;;;;;;
2024/01/10 11:35:11;;;;;;;94.5;46.6;;;;;;;;;;;;;
2024/01/10 11:37:36;;;;;;;106.6;53.9;;;;;;;;;;;;;
2024/01/10 11:40:01;;;;;;;102.5;49.5;;;;;;;;;;;;;
2024/01/10 11:42:26;;;;;;;183.8;86.7;;;;;;;;;;;;;
2024/01/10 11:44:51;;;;;;;57.8;31.1;;;;;;;;;;;;;
2024/01/10 11:47:18;;;;;;;17.3;11.4;;;;;;;;;;;;;
2024/01/10 11:49:41;;;;;;;17.2;11.6;;;;;;;;;;;;;
2024/01/10 11:52:06;;;;;;;38.8;24.7;;;;;;;;;;;;;
2024/01/10 11:54:31;;;;;;;19.4;11.8;;;;;;;;;;;;;
2024/01/10 11:56:57;;;;;;;12.8;8.3;;;;;;;;;;;;;
2024/01/10 11:59:22;;;;;;;13.1;8.6;;;;;;;;;;;;;
2024/01/10 12:01:47;;;;;;;12.3;8.4;;;;;;;;;;;;;
2024/01/10 12:04:12;;;;;;;13.3;9.3;;;;;;;;;;;;;
2024/01/10 12:06:37;;;;;;;12.2;8.3;;;;;;;;;;;;;
2024/01/10 12:09:04;;;;;;;10.5;7;;;;;;;;;;;;;
2024/01/10 12:11:27;;;;;;;9.1;6.4;;;;;;;;;;;;;
2024/01/10 12:13:52;;;;;;;9.2;5.7;;;;;;;;;;;;;
2024/01/10 12:16:18;;;;;;;8.2;5.7;;;;;;;;;;;;;
2024/01/10 12:18:42;;;;;;;7.7;6;;;;;;;;;;;;;
2024/01/10 12:21:08;;;;;;;11.8;8.7;;;;;;;;;;;;;
2024/01/10 12:23:35;;;;;;;8.9;6.3;;;;;;;;;;;;;
2024/01/10 12:25:58;;;;;;;9;5.9;;;;;;;;;;;;;
2024/01/10 12:28:24;;;;;;;8.8;5.8;;;;;;;;;;;;;
2024/01/10 12:30:48;;;;;;;7.4;5.6;;;;;;;;;;;;;
2024/01/10 12:33:13;;;;;;;7.6;5.5;;;;;;;;;;;;;
2024/01/10 12:35:42;;;;;;;9.3;6.3;;;;;;;;;;;;;
2024/01/10 12:38:03;;;;;;;8.6;6;;;;;;;;;;;;;
2024/01/10 12:40:29;;;;;;;7.1;5.6;;;;;;;;;;;;;
2024/01/10 12:42:54;;;;;;;8.1;5.4;;;;;;;;;;;;;
2024/01/10 12:45:19;;;;;;;6.5;5.3;;;;;;;;;;;;;
2024/01/10 12:47:44;;;;;;;8.2;5.9;;;;;;;;;;;;;
2024/01/10 12:50:09;;;;;;;8.8;6.6;;;;;;;;;;;;;
2024/01/10 12:52:39;;;;;;;15.8;9.7;;;;;;;;;;;;;
2024/01/10 12:54:59;;;;;;;19.4;12;;;;;;;;;;;;;
2024/01/10 12:58:04;;;;;;;20.5;13.6;;;;;;;;;;;;;
